sensor_id;sensor_type;location;lat;lon;timestamp;temperature;humidity
25248;DHT22;13191;47.472;11.214;2023-07-22T00:02:16;14.40;99.90
25248;DHT22;13191;47.472;11.214;2023-07-22T00:04:42;14.40;99.90
25248;DHT22;13191;47.472;11.214;2023-07-22T00:07:07;14.40;99.90
25248;DHT22;13191;47.472;11.214;2023-07-22T00:09:33;14.40;99.90
25248;DHT22;13191;47.472;11.214;2023-07-22T00:12:04;14.30;99.90
25248;DHT22;13191;47.472;11.214;2023-07-22T00:14:30;14.30;99.90
25248;DHT22;13191;47.472;11.214;2023-07-22T00:16:55;14.30;99.90
25248;DHT22;13191;47.472;11.214;2023-07-22T00:19:21;14.40;99.90
25248;DHT22;13191;47.472;11.214;2023-07-22T00:21:46;14.40;99.90
25248;DHT22;13191;47.472;11.214;2023-07-22T00:24:12;14.30;99.90
25248;DHT22;13191;47.472;11.214;2023-07-22T00:26:38;14.40;99.90
25248;DHT22;13191;47.472;11.214;2023-07-22T00:29:04;14.40;99.90
25248;DHT22;13191;47.472;11.214;2023-07-22T00:31:30;14.40;99.90
25248;DHT22;13191;47.472;11.214;2023-07-22T00:33:55;14.40;99.90
25248;DHT22;13191;47.472;11.214;2023-07-22T00:36:21;14.40;99.90
25248;DHT22;13191;47.472;11.214;2023-07-22T00:38:46;14.30;99.90
25248;DHT22;13191;47.472;11.214;2023-07-22T00:41:12;14.30;99.90
25248;DHT22;13191;47.472;11.214;2023-07-22T00:43:37;14.30;99.90
25248;DHT22;13191;47.472;11.214;2023-07-22T00:46:04;14.30;99.90
25248;DHT22;13191;47.472;11.214;2023-07-22T00:48:30;14.30;99.90
25248;DHT22;13191;47.472;11.214;2023-07-22T00:50:56;14.20;99.90
25248;DHT22;13191;47.472;11.214;2023-07-22T00:53:21;14.10;99.90
25248;DHT22;13191;47.472;11.214;2023-07-22T00:55:47;14.00;99.90
25248;DHT22;13191;47.472;11.214;2023-07-22T00:58:13;14.00;99.90
25248;DHT22;13191;47.472;11.214;2023-07-22T01:00:38;14.00;99.90
25248;DHT22;13191;47.472;11.214;2023-07-22T01:03:04;14.00;99.90
25248;DHT22;13191;47.472;11.214;2023-07-22T01:05:30;14.00;99.90
25248;DHT22;13191;47.472;11.214;2023-07-22T01:07:56;14.00;99.90
25248;DHT22;13191;47.472;11.214;2023-07-22T01:10:22;14.00;99.90
25248;DHT22;13191;47.472;11.214;2023-07-22T01:12:48;14.10;99.90
25248;DHT22;13191;47.472;11.214;2023-07-22T01:15:14;14.10;99.90
25248;DHT22;13191;47.472;11.214;2023-07-22T01:17:40;14.20;99.90
25248;DHT22;13191;47.472;11.214;2023-07-22T01:20:06;14.10;99.90
25248;DHT22;13191;47.472;11.214;2023-07-22T01:22:33;14.20;99.90
25248;DHT22;13191;47.472;11.214;2023-07-22T01:28:21;14.20;99.90
25248;DHT22;13191;47.472;11.214;2023-07-22T01:30:47;14.30;99.90
25248;DHT22;13191;47.472;11.214;2023-07-22T01:33:14;14.20;99.90
25248;DHT22;13191;47.472;11.214;2023-07-22T01:35:40;14.20;99.90
25248;DHT22;13191;47.472;11.214;2023-07-22T01:38:05;14.30;99.90
25248;DHT22;13191;47.472;11.214;2023-07-22T01:40:33;14.20;99.90
25248;DHT22;13191;47.472;11.214;2023-07-22T01:42:58;14.20;99.90
25248;DHT22;13191;47.472;11.214;2023-07-22T01:45:24;14.30;99.90
25248;DHT22;13191;47.472;11.214;2023-07-22T01:47:50;14.30;99.90
25248;DHT22;13191;47.472;11.214;2023-07-22T01:50:16;14.20;99.90
25248;DHT22;13191;47.472;11.214;2023-07-22T01:52:44;14.10;99.90
25248;DHT22;13191;47.472;11.214;2023-07-22T01:55:09;14.10;99.90
25248;DHT22;13191;47.472;11.214;2023-07-22T01:57:36;14.00;99.90
25248;DHT22;13191;47.472;11.214;2023-07-22T02:00:02;14.00;99.90
25248;DHT22;13191;47.472;11.214;2023-07-22T02:02:30;14.10;99.90
25248;DHT22;13191;47.472;11.214;2023-07-22T02:04:56;14.00;99.90
25248;DHT22;13191;47.472;11.214;2023-07-22T02:07:21;14.00;99.90
25248;DHT22;13191;47.472;11.214;2023-07-22T02:09:47;14.00;99.90
25248;DHT22;13191;47.472;11.214;2023-07-22T02:12:12;14.10;99.90
25248;DHT22;13191;47.472;11.214;2023-07-22T02:14:38;14.00;99.90
25248;DHT22;13191;47.472;11.214;2023-07-22T02:17:03;14.10;99.90
25248;DHT22;13191;47.472;11.214;2023-07-22T02:19:29;14.10;99.90
25248;DHT22;13191;47.472;11.214;2023-07-22T02:21:55;14.10;99.90
25248;DHT22;13191;47.472;11.214;2023-07-22T02:24:21;14.10;99.90
25248;DHT22;13191;47.472;11.214;2023-07-22T02:26:46;14.10;99.90
25248;DHT22;13191;47.472;11.214;2023-07-22T02:29:12;14.10;99.90
25248;DHT22;13191;47.472;11.214;2023-07-22T02:31:37;14.10;99.90
25248;DHT22;13191;47.472;11.214;2023-07-22T02:34:04;14.10;99.90
25248;DHT22;13191;47.472;11.214;2023-07-22T02:36:30;14.10;99.90
25248;DHT22;13191;47.472;11.214;2023-07-22T02:38:55;14.10;99.90
25248;DHT22;13191;47.472;11.214;2023-07-22T02:41:21;14.20;99.90
25248;DHT22;13191;47.472;11.214;2023-07-22T02:43:47;14.20;99.90
25248;DHT22;13191;47.472;11.214;2023-07-22T02:46:12;14.20;99.90
25248;DHT22;13191;47.472;11.214;2023-07-22T02:48:38;14.20;99.90
25248;DHT22;13191;47.472;11.214;2023-07-22T02:51:05;14.20;99.90
25248;DHT22;13191;47.472;11.214;2023-07-22T02:53:32;14.20;99.90
25248;DHT22;13191;47.472;11.214;2023-07-22T02:55:59;14.20;99.90
25248;DHT22;13191;47.472;11.214;2023-07-22T02:58:24;14.20;99.90
25248;DHT22;13191;47.472;11.214;2023-07-22T03:00:50;14.20;99.90
25248;DHT22;13191;47.472;11.214;2023-07-22T03:03:18;14.30;99.90
25248;DHT22;13191;47.472;11.214;2023-07-22T03:05:44;14.30;99.90
25248;DHT22;13191;47.472;11.214;2023-07-22T03:08:10;14.30;99.90
25248;DHT22;13191;47.472;11.214;2023-07-22T03:10:36;14.30;99.90
25248;DHT22;13191;47.472;11.214;2023-07-22T03:13:01;14.30;99.90
25248;DHT22;13191;47.472;11.214;2023-07-22T03:15:29;14.20;99.90
25248;DHT22;13191;47.472;11.214;2023-07-22T03:17:55;14.20;99.90
25248;DHT22;13191;47.472;11.214;2023-07-22T03:20:25;14.20;99.90
25248;DHT22;13191;47.472;11.214;2023-07-22T03:22:51;14.30;99.90
25248;DHT22;13191;47.472;11.214;2023-07-22T03:25:16;14.20;99.90
25248;DHT22;13191;47.472;11.214;2023-07-22T03:27:43;14.30;99.90
25248;DHT22;13191;47.472;11.214;2023-07-22T03:30:15;14.30;99.90
25248;DHT22;13191;47.472;11.214;2023-07-22T03:32:44;14.30;99.90
25248;DHT22;13191;47.472;11.214;2023-07-22T03:35:10;14.20;99.90
25248;DHT22;13191;47.472;11.214;2023-07-22T03:37:36;14.20;99.90
25248;DHT22;13191;47.472;11.214;2023-07-22T03:40:03;14.10;99.90
25248;DHT22;13191;47.472;11.214;2023-07-22T03:42:34;14.10;99.90
25248;DHT22;13191;47.472;11.214;2023-07-22T03:45:00;14.10;99.90
25248;DHT22;13191;47.472;11.214;2023-07-22T03:47:26;14.10;99.90
25248;DHT22;13191;47.472;11.214;2023-07-22T03:49:52;14.00;99.90
25248;DHT22;13191;47.472;11.214;2023-07-22T03:52:17;14.10;99.90
25248;DHT22;13191;47.472;11.214;2023-07-22T03:54:44;14.20;99.90
25248;DHT22;13191;47.472;11.214;2023-07-22T03:57:09;14.10;99.90
25248;DHT22;13191;47.472;11.214;2023-07-22T03:59:35;14.20;99.90
25248;DHT22;13191;47.472;11.214;2023-07-22T04:02:01;14.20;99.90
25248;DHT22;13191;47.472;11.214;2023-07-22T04:04:26;14.20;99.90
25248;DHT22;13191;47.472;11.214;2023-07-22T04:06:52;14.20;99.90
25248;DHT22;13191;47.472;11.214;2023-07-22T04:09:18;14.20;99.90
25248;DHT22;13191;47.472;11.214;2023-07-22T04:11:43;14.20;99.90
25248;DHT22;13191;47.472;11.214;2023-07-22T04:14:09;14.20;99.90
25248;DHT22;13191;47.472;11.214;2023-07-22T04:16:34;14.20;99.90
25248;DHT22;13191;47.472;11.214;2023-07-22T04:19:00;14.20;99.90
25248;DHT22;13191;47.472;11.214;2023-07-22T04:21:25;14.10;99.90
25248;DHT22;13191;47.472;11.214;2023-07-22T04:23:51;14.10;99.90
25248;DHT22;13191;47.472;11.214;2023-07-22T04:26:16;14.10;99.90
25248;DHT22;13191;47.472;11.214;2023-07-22T04:28:42;14.20;99.90
25248;DHT22;13191;47.472;11.214;2023-07-22T04:31:08;14.20;99.90
25248;DHT22;13191;47.472;11.214;2023-07-22T04:33:34;14.20;99.90
25248;DHT22;13191;47.472;11.214;2023-07-22T04:36:00;14.30;99.90
25248;DHT22;13191;47.472;11.214;2023-07-22T04:38:26;14.40;99.90
25248;DHT22;13191;47.472;11.214;2023-07-22T04:40:54;14.40;99.90
25248;DHT22;13191;47.472;11.214;2023-07-22T04:43:20;14.40;99.90
25248;DHT22;13191;47.472;11.214;2023-07-22T04:45:46;14.40;99.90
25248;DHT22;13191;47.472;11.214;2023-07-22T04:48:14;14.40;99.90
25248;DHT22;13191;47.472;11.214;2023-07-22T04:50:41;14.40;99.90
25248;DHT22;13191;47.472;11.214;2023-07-22T04:53:10;14.40;99.90
25248;DHT22;13191;47.472;11.214;2023-07-22T04:55:35;14.50;99.90
25248;DHT22;13191;47.472;11.214;2023-07-22T04:58:02;14.50;99.90
25248;DHT22;13191;47.472;11.214;2023-07-22T05:00:27;14.50;99.90
25248;DHT22;13191;47.472;11.214;2023-07-22T05:02:54;14.50;99.90
25248;DHT22;13191;47.472;11.214;2023-07-22T05:05:21;14.60;99.90
25248;DHT22;13191;47.472;11.214;2023-07-22T05:07:47;14.60;99.90
25248;DHT22;13191;47.472;11.214;2023-07-22T05:10:14;14.60;99.90
25248;DHT22;13191;47.472;11.214;2023-07-22T05:12:41;14.60;99.90
25248;DHT22;13191;47.472;11.214;2023-07-22T05:15:09;14.70;99.90
25248;DHT22;13191;47.472;11.214;2023-07-22T05:17:35;14.70;99.90
25248;DHT22;13191;47.472;11.214;2023-07-22T05:20:00;14.60;99.90
25248;DHT22;13191;47.472;11.214;2023-07-22T05:22:26;14.70;99.90
25248;DHT22;13191;47.472;11.214;2023-07-22T05:24:51;14.70;99.90
25248;DHT22;13191;47.472;11.214;2023-07-22T05:27:17;14.70;99.90
25248;DHT22;13191;47.472;11.214;2023-07-22T05:29:43;14.70;99.90
25248;DHT22;13191;47.472;11.214;2023-07-22T05:32:09;14.70;99.90
25248;DHT22;13191;47.472;11.214;2023-07-22T05:34:35;14.70;99.90
25248;DHT22;13191;47.472;11.214;2023-07-22T05:44:18;14.70;99.90
25248;DHT22;13191;47.472;11.214;2023-07-22T05:54:03;14.80;99.90
25248;DHT22;13191;47.472;11.214;2023-07-22T05:56:28;14.80;99.90
25248;DHT22;13191;47.472;11.214;2023-07-22T05:58:54;14.80;99.90
25248;DHT22;13191;47.472;11.214;2023-07-22T06:01:19;14.80;99.90
25248;DHT22;13191;47.472;11.214;2023-07-22T06:03:45;14.90;99.90
25248;DHT22;13191;47.472;11.214;2023-07-22T06:06:11;15.00;99.90
25248;DHT22;13191;47.472;11.214;2023-07-22T06:08:36;15.00;99.90
25248;DHT22;13191;47.472;11.214;2023-07-22T06:11:03;15.10;99.90
25248;DHT22;13191;47.472;11.214;2023-07-22T06:13:29;15.10;99.90
25248;DHT22;13191;47.472;11.214;2023-07-22T06:15:54;15.20;99.90
25248;DHT22;13191;47.472;11.214;2023-07-22T06:18:23;15.30;99.90
25248;DHT22;13191;47.472;11.214;2023-07-22T06:20:51;15.30;99.90
25248;DHT22;13191;47.472;11.214;2023-07-22T06:23:17;15.30;99.90
25248;DHT22;13191;47.472;11.214;2023-07-22T06:25:43;15.30;99.90
25248;DHT22;13191;47.472;11.214;2023-07-22T06:30:34;15.40;99.90
25248;DHT22;13191;47.472;11.214;2023-07-22T06:33:00;15.50;99.90
25248;DHT22;13191;47.472;11.214;2023-07-22T06:35:26;15.60;99.90
25248;DHT22;13191;47.472;11.214;2023-07-22T06:37:52;15.70;99.90
25248;DHT22;13191;47.472;11.214;2023-07-22T06:40:17;15.70;99.90
25248;DHT22;13191;47.472;11.214;2023-07-22T06:45:09;16.50;99.90
25248;DHT22;13191;47.472;11.214;2023-07-22T06:47:35;16.00;99.90
25248;DHT22;13191;47.472;11.214;2023-07-22T06:54:54;16.00;99.90
25248;DHT22;13191;47.472;11.214;2023-07-22T06:57:20;16.30;99.90
25248;DHT22;13191;47.472;11.214;2023-07-22T06:59:45;16.30;99.90
25248;DHT22;13191;47.472;11.214;2023-07-22T07:02:11;16.30;99.90
25248;DHT22;13191;47.472;11.214;2023-07-22T07:04:36;16.30;99.90
25248;DHT22;13191;47.472;11.214;2023-07-22T07:07:02;16.30;99.90
25248;DHT22;13191;47.472;11.214;2023-07-22T07:09:31;16.40;99.90
25248;DHT22;13191;47.472;11.214;2023-07-22T07:14:23;16.60;99.90
25248;DHT22;13191;47.472;11.214;2023-07-22T07:28:59;16.90;99.90
25248;DHT22;13191;47.472;11.214;2023-07-22T07:31:28;16.90;99.90
25248;DHT22;13191;47.472;11.214;2023-07-22T07:33:56;17.00;99.90
25248;DHT22;13191;47.472;11.214;2023-07-22T07:36:22;17.00;99.90
25248;DHT22;13191;47.472;11.214;2023-07-22T07:38:48;17.00;99.90
25248;DHT22;13191;47.472;11.214;2023-07-22T07:41:14;17.10;99.90
25248;DHT22;13191;47.472;11.214;2023-07-22T07:43:41;17.10;99.90
25248;DHT22;13191;47.472;11.214;2023-07-22T07:46:27;17.10;99.90
25248;DHT22;13191;47.472;11.214;2023-07-22T07:49:02;17.20;99.90
25248;DHT22;13191;47.472;11.214;2023-07-22T07:51:30;17.30;99.90
25248;DHT22;13191;47.472;11.214;2023-07-22T07:53:56;17.30;99.90
25248;DHT22;13191;47.472;11.214;2023-07-22T07:56:24;17.30;99.90
25248;DHT22;13191;47.472;11.214;2023-07-22T07:58:50;17.40;99.90
25248;DHT22;13191;47.472;11.214;2023-07-22T08:01:16;17.50;99.90
25248;DHT22;13191;47.472;11.214;2023-07-22T08:03:42;17.60;99.90
25248;DHT22;13191;47.472;11.214;2023-07-22T08:06:09;17.60;99.90
25248;DHT22;13191;47.472;11.214;2023-07-22T08:08:36;17.60;99.90
25248;DHT22;13191;47.472;11.214;2023-07-22T08:11:06;17.60;99.90
25248;DHT22;13191;47.472;11.214;2023-07-22T08:13:33;17.60;99.90
25248;DHT22;13191;47.472;11.214;2023-07-22T08:16:01;17.50;99.90
25248;DHT22;13191;47.472;11.214;2023-07-22T08:18:28;17.40;99.90
25248;DHT22;13191;47.472;11.214;2023-07-22T08:20:55;17.20;99.90
25248;DHT22;13191;47.472;11.214;2023-07-22T08:23:21;17.10;99.90
25248;DHT22;13191;47.472;11.214;2023-07-22T08:25:47;17.10;99.90
25248;DHT22;13191;47.472;11.214;2023-07-22T08:28:13;17.10;99.90
25248;DHT22;13191;47.472;11.214;2023-07-22T08:30:39;17.20;99.90
25248;DHT22;13191;47.472;11.214;2023-07-22T08:33:06;17.20;99.90
25248;DHT22;13191;47.472;11.214;2023-07-22T08:35:35;17.30;99.90
25248;DHT22;13191;47.472;11.214;2023-07-22T08:38:02;17.40;99.90
25248;DHT22;13191;47.472;11.214;2023-07-22T08:40:35;17.50;99.90
25248;DHT22;13191;47.472;11.214;2023-07-22T08:43:02;17.60;99.90
25248;DHT22;13191;47.472;11.214;2023-07-22T08:45:30;17.60;99.90
25248;DHT22;13191;47.472;11.214;2023-07-22T08:48:07;17.60;99.90
25248;DHT22;13191;47.472;11.214;2023-07-22T08:53:03;17.80;99.90
25248;DHT22;13191;47.472;11.214;2023-07-22T08:55:30;17.80;99.90
25248;DHT22;13191;47.472;11.214;2023-07-22T08:57:56;17.80;99.90
25248;DHT22;13191;47.472;11.214;2023-07-22T09:00:22;17.90;99.90
25248;DHT22;13191;47.472;11.214;2023-07-22T09:02:48;18.00;99.90
25248;DHT22;13191;47.472;11.214;2023-07-22T09:05:15;18.10;99.90
25248;DHT22;13191;47.472;11.214;2023-07-22T09:07:41;18.20;99.90
25248;DHT22;13191;47.472;11.214;2023-07-22T09:10:08;18.30;99.90
25248;DHT22;13191;47.472;11.214;2023-07-22T09:12:35;18.50;99.90
25248;DHT22;13191;47.472;11.214;2023-07-22T09:15:14;18.60;99.90
25248;DHT22;13191;47.472;11.214;2023-07-22T09:17:40;18.80;99.90
25248;DHT22;13191;47.472;11.214;2023-07-22T09:20:06;18.80;99.90
25248;DHT22;13191;47.472;11.214;2023-07-22T09:22:33;18.80;99.90
25248;DHT22;13191;47.472;11.214;2023-07-22T09:25:17;18.70;99.90
25248;DHT22;13191;47.472;11.214;2023-07-22T09:27:44;18.60;99.90
25248;DHT22;13191;47.472;11.214;2023-07-22T09:30:30;18.40;99.90
25248;DHT22;13191;47.472;11.214;2023-07-22T09:33:01;18.40;99.90
25248;DHT22;13191;47.472;11.214;2023-07-22T09:38:08;18.50;99.90
25248;DHT22;13191;47.472;11.214;2023-07-22T09:40:34;18.60;99.90
25248;DHT22;13191;47.472;11.214;2023-07-22T09:43:03;18.70;99.90
25248;DHT22;13191;47.472;11.214;2023-07-22T09:45:30;18.70;99.90
25248;DHT22;13191;47.472;11.214;2023-07-22T09:47:57;18.70;99.90
25248;DHT22;13191;47.472;11.214;2023-07-22T09:50:30;18.60;99.90
25248;DHT22;13191;47.472;11.214;2023-07-22T09:52:57;18.60;99.90
25248;DHT22;13191;47.472;11.214;2023-07-22T09:55:29;18.70;99.90
25248;DHT22;13191;47.472;11.214;2023-07-22T09:58:03;18.80;99.90
25248;DHT22;13191;47.472;11.214;2023-07-22T10:00:32;18.90;99.90
25248;DHT22;13191;47.472;11.214;2023-07-22T10:02:59;18.80;99.90
25248;DHT22;13191;47.472;11.214;2023-07-22T10:05:27;18.70;99.90
25248;DHT22;13191;47.472;11.214;2023-07-22T10:07:58;18.70;99.90
25248;DHT22;13191;47.472;11.214;2023-07-22T10:10:31;18.50;99.90
25248;DHT22;13191;47.472;11.214;2023-07-22T10:13:01;18.50;99.90
25248;DHT22;13191;47.472;11.214;2023-07-22T10:15:32;18.60;99.90
25248;DHT22;13191;47.472;11.214;2023-07-22T10:18:04;18.40;99.90
25248;DHT22;13191;47.472;11.214;2023-07-22T10:20:34;18.30;99.90
25248;DHT22;13191;47.472;11.214;2023-07-22T10:23:02;18.40;99.90
25248;DHT22;13191;47.472;11.214;2023-07-22T10:25:28;18.50;99.90
25248;DHT22;13191;47.472;11.214;2023-07-22T10:27:54;18.60;99.90
25248;DHT22;13191;47.472;11.214;2023-07-22T10:30:19;18.80;99.90
25248;DHT22;13191;47.472;11.214;2023-07-22T10:32:46;19.00;99.90
25248;DHT22;13191;47.472;11.214;2023-07-22T10:37:56;19.00;99.90
25248;DHT22;13191;47.472;11.214;2023-07-22T10:40:32;19.10;99.90
25248;DHT22;13191;47.472;11.214;2023-07-22T10:43:01;19.10;99.90
25248;DHT22;13191;47.472;11.214;2023-07-22T10:45:30;19.10;99.90
25248;DHT22;13191;47.472;11.214;2023-07-22T10:48:07;19.20;99.90
25248;DHT22;13191;47.472;11.214;2023-07-22T10:50:49;19.00;99.90
25248;DHT22;13191;47.472;11.214;2023-07-22T10:56:20;19.00;99.90
25248;DHT22;13191;47.472;11.214;2023-07-22T11:01:35;19.30;99.90
25248;DHT22;13191;47.472;11.214;2023-07-22T11:14:25;19.80;99.90
25248;DHT22;13191;47.472;11.214;2023-07-22T11:16:51;19.90;99.90
25248;DHT22;13191;47.472;11.214;2023-07-22T11:19:19;20.00;99.90
25248;DHT22;13191;47.472;11.214;2023-07-22T11:21:46;20.20;99.90
25248;DHT22;13191;47.472;11.214;2023-07-22T11:24:12;20.40;99.90
25248;DHT22;13191;47.472;11.214;2023-07-22T11:26:39;20.60;99.90
25248;DHT22;13191;47.472;11.214;2023-07-22T11:29:05;20.60;99.90
25248;DHT22;13191;47.472;11.214;2023-07-22T11:31:39;20.70;99.90
25248;DHT22;13191;47.472;11.214;2023-07-22T11:34:13;20.70;99.90
25248;DHT22;13191;47.472;11.214;2023-07-22T11:36:39;20.80;99.90
25248;DHT22;13191;47.472;11.214;2023-07-22T11:39:12;20.70;99.90
25248;DHT22;13191;47.472;11.214;2023-07-22T11:41:39;20.70;99.90
25248;DHT22;13191;47.472;11.214;2023-07-22T11:44:07;20.60;99.90
25248;DHT22;13191;47.472;11.214;2023-07-22T11:46:46;20.70;99.90
25248;DHT22;13191;47.472;11.214;2023-07-22T11:49:12;20.70;99.90
25248;DHT22;13191;47.472;11.214;2023-07-22T11:51:42;20.80;99.90
25248;DHT22;13191;47.472;11.214;2023-07-22T11:54:08;20.80;99.90
25248;DHT22;13191;47.472;11.214;2023-07-22T11:56:34;20.80;99.90
25248;DHT22;13191;47.472;11.214;2023-07-22T11:58:59;20.80;99.90
25248;DHT22;13191;47.472;11.214;2023-07-22T12:01:32;20.80;99.90
25248;DHT22;13191;47.472;11.214;2023-07-22T12:03:58;20.70;99.90
25248;DHT22;13191;47.472;11.214;2023-07-22T12:06:28;20.70;99.90
25248;DHT22;13191;47.472;11.214;2023-07-22T12:08:54;20.70;99.90
25248;DHT22;13191;47.472;11.214;2023-07-22T12:11:23;20.60;99.90
25248;DHT22;13191;47.472;11.214;2023-07-22T12:14:06;20.50;99.90
25248;DHT22;13191;47.472;11.214;2023-07-22T12:16:40;20.50;99.90
25248;DHT22;13191;47.472;11.214;2023-07-22T12:19:08;20.40;99.90
25248;DHT22;13191;47.472;11.214;2023-07-22T12:21:34;20.40;99.90
25248;DHT22;13191;47.472;11.214;2023-07-22T12:24:00;20.30;99.90
25248;DHT22;13191;47.472;11.214;2023-07-22T12:26:26;20.30;99.90
25248;DHT22;13191;47.472;11.214;2023-07-22T12:28:52;20.20;99.90
25248;DHT22;13191;47.472;11.214;2023-07-22T12:31:30;20.20;99.90
25248;DHT22;13191;47.472;11.214;2023-07-22T12:33:56;20.20;99.90
25248;DHT22;13191;47.472;11.214;2023-07-22T12:36:21;20.20;99.90
25248;DHT22;13191;47.472;11.214;2023-07-22T12:38:47;20.30;99.90
25248;DHT22;13191;47.472;11.214;2023-07-22T12:41:13;20.30;99.90
25248;DHT22;13191;47.472;11.214;2023-07-22T12:43:38;20.40;99.90
25248;DHT22;13191;47.472;11.214;2023-07-22T12:46:04;20.50;99.90
25248;DHT22;13191;47.472;11.214;2023-07-22T12:48:29;20.70;99.90
25248;DHT22;13191;47.472;11.214;2023-07-22T12:50:55;20.90;99.90
25248;DHT22;13191;47.472;11.214;2023-07-22T12:53:21;20.90;99.90
25248;DHT22;13191;47.472;11.214;2023-07-22T12:55:49;21.00;99.90
25248;DHT22;13191;47.472;11.214;2023-07-22T12:58:15;20.90;99.90
25248;DHT22;13191;47.472;11.214;2023-07-22T13:00:41;21.00;99.90
25248;DHT22;13191;47.472;11.214;2023-07-22T13:03:06;21.00;99.90
25248;DHT22;13191;47.472;11.214;2023-07-22T13:05:32;21.00;99.90
25248;DHT22;13191;47.472;11.214;2023-07-22T13:07:59;21.20;99.90
25248;DHT22;13191;47.472;11.214;2023-07-22T13:10:30;21.20;99.90
25248;DHT22;13191;47.472;11.214;2023-07-22T13:12:58;21.30;99.90
25248;DHT22;13191;47.472;11.214;2023-07-22T13:15:24;21.40;99.90
25248;DHT22;13191;47.472;11.214;2023-07-22T13:17:52;21.50;99.90
25248;DHT22;13191;47.472;11.214;2023-07-22T13:20:18;21.60;99.90
25248;DHT22;13191;47.472;11.214;2023-07-22T13:22:44;21.50;99.90
25248;DHT22;13191;47.472;11.214;2023-07-22T13:25:09;21.60;99.90
25248;DHT22;13191;47.472;11.214;2023-07-22T13:27:35;21.60;99.90
25248;DHT22;13191;47.472;11.214;2023-07-22T13:30:04;21.60;99.90
25248;DHT22;13191;47.472;11.214;2023-07-22T13:32:30;21.50;99.90
25248;DHT22;13191;47.472;11.214;2023-07-22T13:34:56;21.60;99.90
25248;DHT22;13191;47.472;11.214;2023-07-22T13:37:21;21.60;99.90
25248;DHT22;13191;47.472;11.214;2023-07-22T13:39:47;21.50;99.90
25248;DHT22;13191;47.472;11.214;2023-07-22T13:42:12;21.50;99.90
25248;DHT22;13191;47.472;11.214;2023-07-22T13:44:38;21.40;99.90
25248;DHT22;13191;47.472;11.214;2023-07-22T13:47:04;21.40;99.90
25248;DHT22;13191;47.472;11.214;2023-07-22T13:49:29;21.40;99.90
25248;DHT22;13191;47.472;11.214;2023-07-22T13:51:55;21.40;99.90
25248;DHT22;13191;47.472;11.214;2023-07-22T13:54:20;21.50;99.90
25248;DHT22;13191;47.472;11.214;2023-07-22T13:56:46;21.60;99.90
25248;DHT22;13191;47.472;11.214;2023-07-22T13:59:14;21.60;99.90
25248;DHT22;13191;47.472;11.214;2023-07-22T14:01:40;21.60;99.90
25248;DHT22;13191;47.472;11.214;2023-07-22T14:04:06;21.50;99.90
25248;DHT22;13191;47.472;11.214;2023-07-22T14:06:31;21.50;99.90
25248;DHT22;13191;47.472;11.214;2023-07-22T14:09:01;21.50;99.90
25248;DHT22;13191;47.472;11.214;2023-07-22T14:11:27;21.60;99.90
25248;DHT22;13191;47.472;11.214;2023-07-22T14:13:52;21.60;99.90
25248;DHT22;13191;47.472;11.214;2023-07-22T14:16:18;21.60;99.90
25248;DHT22;13191;47.472;11.214;2023-07-22T14:18:43;21.70;99.90
25248;DHT22;13191;47.472;11.214;2023-07-22T14:21:10;21.70;99.90
25248;DHT22;13191;47.472;11.214;2023-07-22T14:23:37;21.80;99.90
25248;DHT22;13191;47.472;11.214;2023-07-22T14:26:02;21.80;99.90
25248;DHT22;13191;47.472;11.214;2023-07-22T14:28:28;21.80;99.90
25248;DHT22;13191;47.472;11.214;2023-07-22T14:30:53;21.90;99.90
25248;DHT22;13191;47.472;11.214;2023-07-22T14:33:19;22.00;99.90
25248;DHT22;13191;47.472;11.214;2023-07-22T14:35:44;22.10;99.90
25248;DHT22;13191;47.472;11.214;2023-07-22T14:38:10;22.10;99.90
25248;DHT22;13191;47.472;11.214;2023-07-22T14:40:36;22.20;99.90
25248;DHT22;13191;47.472;11.214;2023-07-22T14:43:02;22.40;99.90
25248;DHT22;13191;47.472;11.214;2023-07-22T14:45:28;22.70;99.90
25248;DHT22;13191;47.472;11.214;2023-07-22T14:47:53;22.80;99.90
25248;DHT22;13191;47.472;11.214;2023-07-22T14:50:19;22.90;99.90
25248;DHT22;13191;47.472;11.214;2023-07-22T14:52:45;23.00;99.90
25248;DHT22;13191;47.472;11.214;2023-07-22T14:55:10;23.00;99.90
25248;DHT22;13191;47.472;11.214;2023-07-22T14:57:36;23.00;99.90
25248;DHT22;13191;47.472;11.214;2023-07-22T15:00:02;22.90;99.90
25248;DHT22;13191;47.472;11.214;2023-07-22T15:02:28;23.00;99.90
25248;DHT22;13191;47.472;11.214;2023-07-22T15:04:57;22.90;99.90
25248;DHT22;13191;47.472;11.214;2023-07-22T15:07:25;22.90;99.90
25248;DHT22;13191;47.472;11.214;2023-07-22T15:09:53;22.90;99.90
25248;DHT22;13191;47.472;11.214;2023-07-22T15:12:19;22.80;99.90
25248;DHT22;13191;47.472;11.214;2023-07-22T15:14:45;22.80;99.90
25248;DHT22;13191;47.472;11.214;2023-07-22T15:17:11;22.70;99.90
25248;DHT22;13191;47.472;11.214;2023-07-22T15:19:36;22.60;99.90
25248;DHT22;13191;47.472;11.214;2023-07-22T15:22:02;22.60;99.90
25248;DHT22;13191;47.472;11.214;2023-07-22T15:24:28;22.60;99.90
25248;DHT22;13191;47.472;11.214;2023-07-22T15:26:54;22.60;99.90
25248;DHT22;13191;47.472;11.214;2023-07-22T15:29:19;22.80;99.90
25248;DHT22;13191;47.472;11.214;2023-07-22T15:31:45;22.90;99.90
25248;DHT22;13191;47.472;11.214;2023-07-22T15:34:10;23.10;99.90
25248;DHT22;13191;47.472;11.214;2023-07-22T15:36:36;23.40;99.90
25248;DHT22;13191;47.472;11.214;2023-07-22T15:39:02;23.60;99.90
25248;DHT22;13191;47.472;11.214;2023-07-22T15:41:28;23.50;99.90
25248;DHT22;13191;47.472;11.214;2023-07-22T15:43:53;23.40;99.90
25248;DHT22;13191;47.472;11.214;2023-07-22T15:46:19;23.40;99.90
25248;DHT22;13191;47.472;11.214;2023-07-22T15:48:44;23.40;99.90
25248;DHT22;13191;47.472;11.214;2023-07-22T15:51:10;23.30;99.90
25248;DHT22;13191;47.472;11.214;2023-07-22T15:53:36;23.30;99.90
25248;DHT22;13191;47.472;11.214;2023-07-22T15:56:01;23.30;99.90
25248;DHT22;13191;47.472;11.214;2023-07-22T15:58:27;23.30;99.90
25248;DHT22;13191;47.472;11.214;2023-07-22T16:00:53;23.50;99.90
25248;DHT22;13191;47.472;11.214;2023-07-22T16:03:18;23.60;99.90
25248;DHT22;13191;47.472;11.214;2023-07-22T16:05:44;23.80;99.90
25248;DHT22;13191;47.472;11.214;2023-07-22T16:08:09;23.80;99.90
25248;DHT22;13191;47.472;11.214;2023-07-22T16:10:35;23.90;99.90
25248;DHT22;13191;47.472;11.214;2023-07-22T16:13:01;24.00;99.90
25248;DHT22;13191;47.472;11.214;2023-07-22T16:15:27;24.20;99.90
25248;DHT22;13191;47.472;11.214;2023-07-22T16:17:53;24.30;99.90
25248;DHT22;13191;47.472;11.214;2023-07-22T16:20:19;24.40;99.90